createdAt,value
2022-12-15T00:05:01.279Z,0.71
2022-12-15T00:10:28.829Z,0.67
2022-12-15T00:15:55.468Z,0.70
2022-12-15T00:21:19.961Z,0.78
2022-12-15T00:26:47.995Z,0.81
2022-12-15T00:32:09.440Z,0.82
2022-12-15T00:37:31.478Z,0.86
2022-12-15T00:42:40.459Z,0.87
2022-12-15T00:47:46.243Z,0.90
2022-12-15T00:53:07.208Z,0.96
2022-12-15T00:58:27.225Z,0.98
2022-12-15T01:03:47.425Z,0.99
2022-12-15T01:09:08.324Z,1.03
2022-12-15T01:14:33.334Z,1.06
2022-12-15T01:19:53.681Z,1.07
2022-12-15T01:24:55.598Z,1.03
2022-12-15T01:29:58.493Z,1.02
2022-12-15T01:35:06.698Z,0.99
2022-12-15T01:40:34.243Z,0.94
2022-12-15T01:45:54.345Z,0.83
2022-12-15T01:51:12.913Z,0.79
2022-12-15T01:56:18.266Z,0.78
2022-12-15T02:01:20.075Z,0.80
2022-12-15T02:06:26.333Z,0.78
2022-12-15T02:12:19.934Z,0.77
2022-12-15T02:17:40.322Z,0.74
2022-12-15T02:23:05.222Z,0.75
2022-12-15T02:28:13.107Z,0.75
2022-12-15T02:33:34.227Z,0.75
2022-12-15T02:38:42.953Z,0.77
2022-12-15T02:43:49.910Z,0.80
2022-12-15T02:49:10.034Z,0.81
2022-12-15T02:54:35.359Z,0.73
2022-12-15T02:59:55.388Z,0.68
2022-12-15T03:05:05.644Z,0.71
2022-12-15T03:10:13.214Z,0.69
2022-12-15T03:15:16.152Z,0.65
2022-12-15T03:20:22.135Z,0.68
2022-12-15T03:25:26.054Z,0.70
2022-12-15T03:30:30.164Z,0.68
2022-12-15T03:35:33.626Z,0.70
2022-12-15T03:40:44.083Z,0.74
2022-12-15T03:45:51.498Z,0.78
2022-12-15T03:50:55.993Z,0.79
2022-12-15T03:55:59.701Z,0.82
2022-12-15T04:01:13.860Z,0.84
2022-12-15T04:06:20.531Z,0.85
2022-12-15T04:11:24.503Z,0.86
2022-12-15T04:16:26.127Z,0.85
2022-12-15T04:21:30.094Z,0.88
2022-12-15T04:26:53.488Z,0.92
2022-12-15T04:32:34.126Z,0.93
2022-12-15T04:37:56.884Z,0.97
2022-12-15T04:43:20.298Z,1.02
2022-12-15T04:48:50.821Z,1.04
2022-12-15T04:54:13.567Z,1.06
2022-12-15T04:59:36.447Z,1.09
2022-12-15T05:05:01.219Z,1.11
2022-12-15T05:10:24.913Z,1.06
2022-12-15T05:15:49.946Z,1.05
2022-12-15T05:21:13.069Z,1.07
2022-12-15T05:26:36.279Z,1.10
2022-12-15T05:31:48.986Z,1.05
2022-12-15T05:36:59.171Z,0.98
2022-12-15T05:42:02.292Z,0.92
2022-12-15T05:47:14.004Z,0.85
2022-12-15T05:52:36.693Z,0.83
2022-12-15T05:57:40.612Z,0.84
2022-12-15T06:02:53.964Z,0.82
2022-12-15T06:08:01.349Z,0.83
2022-12-15T06:13:02.857Z,0.88
2022-12-15T06:18:06.542Z,0.90
2022-12-15T06:23:08.081Z,0.95
2022-12-15T06:28:21.416Z,1.00
2022-12-15T06:33:23.099Z,1.04
2022-12-15T06:38:24.836Z,1.07
2022-12-15T06:43:28.873Z,1.11
2022-12-15T06:48:31.449Z,1.13
2022-12-15T06:53:44.805Z,1.12
2022-12-15T06:58:54.763Z,1.03
2022-12-15T07:03:57.329Z,1.00
2022-12-15T07:09:02.418Z,1.04
2022-12-15T07:14:04.793Z,1.06
2022-12-15T07:19:11.691Z,1.11
2022-12-15T07:24:20.275Z,1.14
2022-12-15T07:29:27.051Z,1.18
2022-12-15T07:34:28.797Z,1.15
2022-12-15T07:39:33.498Z,1.15
2022-12-15T07:44:37.196Z,1.19
2022-12-15T07:49:42.171Z,1.23
2022-12-15T07:54:43.650Z,1.26
2022-12-15T07:59:47.720Z,1.28
2022-12-15T08:04:59.066Z,1.27
2022-12-15T08:10:00.562Z,1.26
2022-12-15T08:15:11.682Z,1.16
2022-12-15T08:20:26.110Z,1.18
2022-12-15T08:25:40.499Z,1.24
2022-12-15T08:30:44.852Z,1.28
2022-12-15T08:35:56.784Z,1.35
2022-12-15T08:41:36.719Z,1.43
2022-12-15T08:46:43.752Z,1.49
2022-12-15T08:51:52.376Z,1.57
2022-12-15T08:57:14.073Z,1.63
2022-12-15T09:02:22.901Z,1.65
2022-12-15T09:07:26.909Z,1.68
2022-12-15T09:12:28.575Z,1.66
2022-12-15T09:17:32.558Z,1.55
2022-12-15T09:22:50.343Z,1.50
2022-12-15T09:27:52.066Z,1.59
2022-12-15T09:33:02.431Z,1.66
2022-12-15T09:38:09.158Z,1.60
2022-12-15T09:43:46.756Z,1.57
2022-12-15T09:48:58.184Z,1.45
2022-12-15T09:54:02.487Z,1.40
2022-12-15T09:59:40.521Z,1.48
2022-12-15T10:04:56.051Z,1.62
2022-12-15T10:10:15.253Z,1.79
2022-12-15T10:15:26.710Z,2.00
2022-12-15T10:20:31.800Z,2.17
2022-12-15T10:25:33.405Z,2.31
2022-12-15T10:30:37.274Z,2.47
2022-12-15T10:35:43.957Z,2.62
2022-12-15T10:40:57.886Z,2.75
2022-12-15T10:46:21.607Z,2.90
2022-12-15T10:51:45.037Z,3.00
2022-12-15T10:56:58.177Z,3.10
2022-12-15T11:02:24.380Z,3.19
2022-12-15T11:07:38.327Z,3.23
2022-12-15T11:12:58.381Z,3.30
2022-12-15T11:18:03.601Z,3.34
2022-12-15T11:23:14.590Z,3.37
2022-12-15T11:28:20.894Z,3.41
2022-12-15T11:33:27.099Z,3.41
2022-12-15T11:38:51.043Z,3.41
2022-12-15T11:44:31.469Z,3.37
2022-12-15T11:49:41.457Z,3.34
2022-12-15T11:55:16.918Z,3.36
2022-12-15T12:00:22.574Z,3.38
2022-12-15T12:05:31.901Z,3.42
2022-12-15T12:10:34.558Z,3.47
2022-12-15T12:15:57.537Z,3.52
2022-12-15T12:21:13.687Z,3.55
2022-12-15T12:26:26.592Z,3.59
2022-12-15T12:31:51.918Z,3.62
2022-12-15T12:36:58.814Z,3.63
2022-12-15T12:42:23.105Z,3.64
2022-12-15T12:47:31.990Z,3.59
2022-12-15T12:52:39.961Z,3.39
2022-12-15T12:57:55.634Z,3.32
2022-12-15T13:03:26.008Z,3.35
2022-12-15T13:08:51.685Z,3.39
2022-12-15T13:13:53.976Z,3.45
2022-12-15T13:19:06.226Z,3.47
2022-12-15T13:24:56.102Z,3.48
2022-12-15T13:30:09.192Z,3.51
2022-12-15T13:35:15.068Z,3.48
2022-12-15T13:40:22.621Z,3.47
2022-12-15T13:45:54.999Z,3.46
2022-12-15T13:51:24.677Z,3.46
2022-12-15T13:56:47.158Z,3.43
2022-12-15T14:01:56.086Z,3.42
2022-12-15T14:07:08.081Z,3.39
2022-12-15T14:12:22.213Z,3.37
2022-12-15T14:17:23.885Z,3.34
2022-12-15T14:22:32.309Z,3.34
2022-12-15T14:27:37.577Z,3.32
2022-12-15T14:32:45.452Z,3.31
2022-12-15T14:37:47.270Z,3.31
2022-12-15T14:42:53.460Z,3.29
2022-12-15T14:53:34.012Z,3.23
2022-12-15T14:58:39.678Z,3.20
2022-12-15T15:03:42.368Z,3.14
2022-12-15T15:09:09.969Z,3.09
2022-12-15T15:14:22.646Z,3.01
2022-12-15T15:19:29.089Z,2.96
2022-12-15T15:24:42.456Z,2.93
2022-12-15T15:29:44.013Z,2.88
2022-12-15T15:34:49.294Z,2.85
2022-12-15T15:39:57.238Z,2.81
2022-12-15T15:45:15.492Z,2.76
2022-12-15T15:50:32.774Z,2.70
2022-12-15T15:55:40.033Z,2.52
2022-12-15T16:00:54.945Z,2.40
2022-12-15T16:05:58.866Z,2.36
2022-12-15T16:11:06.460Z,2.33
2022-12-15T16:16:21.612Z,2.23
2022-12-15T16:21:30.188Z,2.16
2022-12-15T16:26:33.170Z,2.17
2022-12-15T16:31:46.059Z,2.19
2022-12-15T16:36:47.854Z,2.19
2022-12-15T16:41:51.635Z,2.22
2022-12-15T16:46:59.234Z,2.23
2022-12-15T16:52:03.668Z,2.25
2022-12-15T16:57:14.688Z,2.22
2022-12-15T17:02:27.460Z,2.13
2022-12-15T17:07:35.919Z,2.00
2022-12-15T17:12:45.704Z,1.90
2022-12-15T17:17:47.504Z,1.76
2022-12-15T17:23:06.603Z,1.60
2022-12-15T17:28:19.382Z,1.49
2022-12-15T17:33:30.948Z,1.47
2022-12-15T17:38:36.137Z,1.54
2022-12-15T17:44:32.436Z,1.60
2022-12-15T17:49:37.701Z,1.70
2022-12-15T17:54:39.800Z,1.80
2022-12-15T17:59:48.171Z,1.84
2022-12-15T18:04:49.978Z,1.90
2022-12-15T18:09:53.999Z,1.82
2022-12-15T18:15:22.227Z,1.81
2022-12-15T18:20:31.138Z,1.83
2022-12-15T18:25:44.533Z,1.88
2022-12-15T18:30:49.459Z,1.95
2022-12-15T18:35:51.898Z,2.00
2022-12-15T18:40:57.901Z,2.04
2022-12-15T18:46:00.156Z,2.07
2022-12-15T18:51:17.848Z,2.11
2022-12-15T18:56:23.428Z,2.13
2022-12-15T19:01:33.543Z,2.17
2022-12-15T19:06:40.222Z,2.20
2022-12-15T19:12:06.182Z,2.20
2022-12-15T19:17:31.158Z,2.19
2022-12-15T19:22:34.747Z,2.12
2022-12-15T19:27:39.907Z,2.07
2022-12-15T19:32:50.347Z,2.05
2022-12-15T19:37:59.049Z,2.09
2022-12-15T19:43:05.218Z,2.09
2022-12-15T19:48:12.586Z,2.09
2022-12-15T19:53:24.318Z,2.08
2022-12-15T19:58:42.665Z,2.09
2022-12-15T20:03:56.277Z,2.07
2022-12-15T20:08:59.756Z,2.05
2022-12-15T20:14:13.851Z,2.10
2022-12-15T20:19:18.415Z,2.11
2022-12-15T20:24:29.602Z,2.13
2022-12-15T20:29:45.940Z,2.13
2022-12-15T20:34:48.358Z,2.09
2022-12-15T20:39:55.540Z,2.03
2022-12-15T20:44:58.826Z,1.99
2022-12-15T20:50:00.499Z,1.96
2022-12-15T20:55:03.050Z,1.98
2022-12-15T21:00:05.833Z,2.03
2022-12-15T21:05:08.385Z,2.08
2022-12-15T21:10:12.815Z,2.14
2022-12-15T21:15:18.712Z,2.12
2022-12-15T21:20:20.264Z,2.11
2022-12-15T21:25:26.440Z,2.13
2022-12-15T21:30:28.112Z,2.10
2022-12-15T21:35:31.897Z,2.03
2022-12-15T21:40:33.862Z,1.98
2022-12-15T21:45:35.446Z,1.73
2022-12-15T21:50:38.445Z,1.42
2022-12-15T21:55:41.079Z,1.35
2022-12-15T22:00:45.778Z,1.33
2022-12-15T22:05:47.494Z,1.37
2022-12-15T22:10:50.963Z,1.37
2022-12-15T22:15:54.714Z,1.38
2022-12-15T22:20:56.560Z,1.42
2022-12-15T22:25:58.272Z,1.34
2022-12-15T22:31:02.126Z,1.27
2022-12-15T22:36:03.885Z,1.15
2022-12-15T22:41:06.900Z,1.13
2022-12-15T22:46:12.500Z,0.99
2022-12-15T22:51:16.127Z,1.00
2022-12-15T22:56:23.780Z,0.98
2022-12-15T23:01:26.804Z,0.88
2022-12-15T23:06:28.410Z,0.73
2022-12-15T23:11:38.707Z,0.74
2022-12-15T23:16:40.702Z,0.70
2022-12-15T23:21:42.283Z,0.72
2022-12-15T23:26:44.094Z,0.81
2022-12-15T23:31:45.652Z,0.88
2022-12-15T23:36:47.305Z,0.95
2022-12-15T23:41:48.829Z,0.99
2022-12-15T23:46:50.452Z,0.96
2022-12-15T23:51:52.073Z,0.87
2022-12-15T23:56:53.654Z,0.80
